sensor_id;sensor_type;location;lat;lon;timestamp;temperature;humidity
21169;DHT22;10742;51.816;8.662;2022-09-03T00:02:13;21.40;47.90
21169;DHT22;10742;51.816;8.662;2022-09-03T00:05:53;21.40;48.00
21169;DHT22;10742;51.816;8.662;2022-09-03T00:12:45;21.30;48.10
21169;DHT22;10742;51.816;8.662;2022-09-03T00:16:11;21.30;47.90
21169;DHT22;10742;51.816;8.662;2022-09-03T00:19:35;21.30;48.10
21169;DHT22;10742;51.816;8.662;2022-09-03T00:23:04;21.20;48.10
21169;DHT22;10742;51.816;8.662;2022-09-03T00:26:27;21.20;48.20
21169;DHT22;10742;51.816;8.662;2022-09-03T00:30:22;21.20;48.30
21169;DHT22;10742;51.816;8.662;2022-09-03T00:33:48;21.10;48.60
21169;DHT22;10742;51.816;8.662;2022-09-03T00:37:12;21.10;48.30
21169;DHT22;10742;51.816;8.662;2022-09-03T00:48:27;21.00;48.80
21169;DHT22;10742;51.816;8.662;2022-09-03T01:00:09;20.90;49.00
21169;DHT22;10742;51.816;8.662;2022-09-03T01:03:42;20.90;48.90
21169;DHT22;10742;51.816;8.662;2022-09-03T01:15:03;20.70;49.40
21169;DHT22;10742;51.816;8.662;2022-09-03T01:18:47;20.70;49.50
21169;DHT22;10742;51.816;8.662;2022-09-03T01:30:17;20.60;49.80
21169;DHT22;10742;51.816;8.662;2022-09-03T01:33:49;20.60;49.70
21169;DHT22;10742;51.816;8.662;2022-09-03T01:52:41;20.40;49.90
21169;DHT22;10742;51.816;8.662;2022-09-03T01:59:40;20.40;50.30
21169;DHT22;10742;51.816;8.662;2022-09-03T02:03:04;20.30;50.10
21169;DHT22;10742;51.816;8.662;2022-09-03T02:06:27;20.30;50.20
21169;DHT22;10742;51.816;8.662;2022-09-03T02:09:51;20.30;50.20
21169;DHT22;10742;51.816;8.662;2022-09-03T02:13:44;20.20;50.20
21169;DHT22;10742;51.816;8.662;2022-09-03T02:17:07;20.20;50.80
21169;DHT22;10742;51.816;8.662;2022-09-03T02:20:31;20.20;50.40
21169;DHT22;10742;51.816;8.662;2022-09-03T02:23:53;20.10;50.50
21169;DHT22;10742;51.816;8.662;2022-09-03T02:27:15;20.10;50.60
21169;DHT22;10742;51.816;8.662;2022-09-03T02:30:36;20.10;50.70
21169;DHT22;10742;51.816;8.662;2022-09-03T02:33:57;20.00;50.70
21169;DHT22;10742;51.816;8.662;2022-09-03T02:37:19;20.00;50.90
21169;DHT22;10742;51.816;8.662;2022-09-03T02:40:40;20.00;50.90
21169;DHT22;10742;51.816;8.662;2022-09-03T02:44:25;20.00;51.00
21169;DHT22;10742;51.816;8.662;2022-09-03T02:47:55;19.90;51.50
21169;DHT22;10742;51.816;8.662;2022-09-03T02:51:16;19.90;51.30
21169;DHT22;10742;51.816;8.662;2022-09-03T02:54:39;19.90;51.20
21169;DHT22;10742;51.816;8.662;2022-09-03T02:58:00;19.80;51.30
21169;DHT22;10742;51.816;8.662;2022-09-03T03:01:23;19.80;51.30
21169;DHT22;10742;51.816;8.662;2022-09-03T03:04:44;19.80;51.40
21169;DHT22;10742;51.816;8.662;2022-09-03T03:08:06;19.70;51.50
21169;DHT22;10742;51.816;8.662;2022-09-03T03:11:28;19.70;51.60
21169;DHT22;10742;51.816;8.662;2022-09-03T03:14:50;19.70;51.70
21169;DHT22;10742;51.816;8.662;2022-09-03T03:18:12;19.70;51.80
21169;DHT22;10742;51.816;8.662;2022-09-03T03:21:34;19.70;51.90
21169;DHT22;10742;51.816;8.662;2022-09-03T03:24:55;19.60;51.90
21169;DHT22;10742;51.816;8.662;2022-09-03T03:28:17;19.60;52.00
21169;DHT22;10742;51.816;8.662;2022-09-03T03:31:40;19.50;52.10
21169;DHT22;10742;51.816;8.662;2022-09-03T03:35:02;19.50;52.20
21169;DHT22;10742;51.816;8.662;2022-09-03T03:38:24;19.40;52.30
21169;DHT22;10742;51.816;8.662;2022-09-03T03:41:45;19.40;52.40
21169;DHT22;10742;51.816;8.662;2022-09-03T03:45:07;19.40;52.50
21169;DHT22;10742;51.816;8.662;2022-09-03T03:48:31;19.40;52.70
21169;DHT22;10742;51.816;8.662;2022-09-03T03:51:53;19.30;52.70
21169;DHT22;10742;51.816;8.662;2022-09-03T03:55:14;19.30;52.70
21169;DHT22;10742;51.816;8.662;2022-09-03T03:58:36;19.30;52.80
21169;DHT22;10742;51.816;8.662;2022-09-03T04:02:04;19.30;52.90
21169;DHT22;10742;51.816;8.662;2022-09-03T04:05:25;19.20;52.90
21169;DHT22;10742;51.816;8.662;2022-09-03T04:08:47;19.20;53.00
21169;DHT22;10742;51.816;8.662;2022-09-03T04:12:09;19.20;53.20
21169;DHT22;10742;51.816;8.662;2022-09-03T04:15:30;19.20;53.20
21169;DHT22;10742;51.816;8.662;2022-09-03T04:18:53;19.10;53.30
21169;DHT22;10742;51.816;8.662;2022-09-03T04:22:14;19.10;53.50
21169;DHT22;10742;51.816;8.662;2022-09-03T04:25:36;19.10;53.50
21169;DHT22;10742;51.816;8.662;2022-09-03T04:28:59;19.10;53.60
21169;DHT22;10742;51.816;8.662;2022-09-03T04:32:21;19.00;53.70
21169;DHT22;10742;51.816;8.662;2022-09-03T04:36:21;19.00;53.70
21169;DHT22;10742;51.816;8.662;2022-09-03T04:39:43;19.00;54.30
21169;DHT22;10742;51.816;8.662;2022-09-03T04:43:04;18.90;53.90
21169;DHT22;10742;51.816;8.662;2022-09-03T04:46:27;18.90;54.10
21169;DHT22;10742;51.816;8.662;2022-09-03T04:49:53;18.90;54.20
21169;DHT22;10742;51.816;8.662;2022-09-03T04:53:14;18.90;54.20
21169;DHT22;10742;51.816;8.662;2022-09-03T04:56:38;18.90;54.40
21169;DHT22;10742;51.816;8.662;2022-09-03T04:59:59;18.80;54.70
21169;DHT22;10742;51.816;8.662;2022-09-03T05:03:21;18.80;54.60
21169;DHT22;10742;51.816;8.662;2022-09-03T05:06:42;18.80;54.70
21169;DHT22;10742;51.816;8.662;2022-09-03T05:10:07;18.80;54.80
21169;DHT22;10742;51.816;8.662;2022-09-03T05:13:28;18.80;55.00
21169;DHT22;10742;51.816;8.662;2022-09-03T05:16:50;18.80;55.00
21169;DHT22;10742;51.816;8.662;2022-09-03T05:20:11;18.70;55.10
21169;DHT22;10742;51.816;8.662;2022-09-03T05:23:37;18.80;55.30
21169;DHT22;10742;51.816;8.662;2022-09-03T05:26:59;18.80;55.60
21169;DHT22;10742;51.816;8.662;2022-09-03T05:30:21;18.80;55.40
21169;DHT22;10742;51.816;8.662;2022-09-03T05:33:45;18.80;55.50
21169;DHT22;10742;51.816;8.662;2022-09-03T05:37:07;18.80;55.80
21169;DHT22;10742;51.816;8.662;2022-09-03T05:40:28;18.80;55.70
21169;DHT22;10742;51.816;8.662;2022-09-03T05:43:51;18.90;55.90
21169;DHT22;10742;51.816;8.662;2022-09-03T05:47:19;18.90;56.10
21169;DHT22;10742;51.816;8.662;2022-09-03T05:50:40;18.90;56.00
21169;DHT22;10742;51.816;8.662;2022-09-03T05:54:02;19.00;56.10
21169;DHT22;10742;51.816;8.662;2022-09-03T05:57:23;18.90;56.20
21169;DHT22;10742;51.816;8.662;2022-09-03T06:00:45;19.00;56.30
21169;DHT22;10742;51.816;8.662;2022-09-03T06:04:09;19.00;56.40
21169;DHT22;10742;51.816;8.662;2022-09-03T06:07:31;19.10;56.70
21169;DHT22;10742;51.816;8.662;2022-09-03T06:10:57;19.20;56.90
21169;DHT22;10742;51.816;8.662;2022-09-03T06:14:19;19.30;57.70
21169;DHT22;10742;51.816;8.662;2022-09-03T06:17:41;19.50;57.00
21169;DHT22;10742;51.816;8.662;2022-09-03T06:21:04;19.60;57.00
21169;DHT22;10742;51.816;8.662;2022-09-03T06:24:26;19.80;57.30
21169;DHT22;10742;51.816;8.662;2022-09-03T06:27:50;20.00;57.10
21169;DHT22;10742;51.816;8.662;2022-09-03T06:31:13;20.20;57.10
21169;DHT22;10742;51.816;8.662;2022-09-03T06:34:34;20.40;56.80
21169;DHT22;10742;51.816;8.662;2022-09-03T06:37:55;20.70;56.50
21169;DHT22;10742;51.816;8.662;2022-09-03T06:41:20;20.80;56.10
21169;DHT22;10742;51.816;8.662;2022-09-03T06:44:45;21.00;55.90
21169;DHT22;10742;51.816;8.662;2022-09-03T06:48:06;21.20;55.70
21169;DHT22;10742;51.816;8.662;2022-09-03T06:51:29;21.40;55.50
21169;DHT22;10742;51.816;8.662;2022-09-03T06:54:51;21.60;55.20
21169;DHT22;10742;51.816;8.662;2022-09-03T06:58:12;21.80;54.90
21169;DHT22;10742;51.816;8.662;2022-09-03T07:01:35;21.90;54.50
21169;DHT22;10742;51.816;8.662;2022-09-03T07:04:57;22.10;54.30
21169;DHT22;10742;51.816;8.662;2022-09-03T07:08:18;22.20;54.20
21169;DHT22;10742;51.816;8.662;2022-09-03T07:11:39;22.30;54.10
21169;DHT22;10742;51.816;8.662;2022-09-03T07:15:07;22.50;53.80
21169;DHT22;10742;51.816;8.662;2022-09-03T07:18:30;22.70;53.40
21169;DHT22;10742;51.816;8.662;2022-09-03T07:21:51;22.80;53.30
21169;DHT22;10742;51.816;8.662;2022-09-03T07:25:13;22.90;53.10
21169;DHT22;10742;51.816;8.662;2022-09-03T07:28:36;23.00;52.80
21169;DHT22;10742;51.816;8.662;2022-09-03T07:31:58;23.20;52.60
21169;DHT22;10742;51.816;8.662;2022-09-03T07:35:19;23.30;52.40
21169;DHT22;10742;51.816;8.662;2022-09-03T07:38:42;23.40;52.10
21169;DHT22;10742;51.816;8.662;2022-09-03T07:42:05;23.50;52.10
21169;DHT22;10742;51.816;8.662;2022-09-03T07:45:31;23.70;52.30
21169;DHT22;10742;51.816;8.662;2022-09-03T07:48:55;23.90;52.10
21169;DHT22;10742;51.816;8.662;2022-09-03T07:52:17;24.10;51.90
21169;DHT22;10742;51.816;8.662;2022-09-03T07:55:39;24.30;51.50
21169;DHT22;10742;51.816;8.662;2022-09-03T07:59:00;24.50;51.00
21169;DHT22;10742;51.816;8.662;2022-09-03T08:02:21;24.70;50.40
21169;DHT22;10742;51.816;8.662;2022-09-03T08:05:42;24.80;50.10
21169;DHT22;10742;51.816;8.662;2022-09-03T08:09:06;24.90;49.80
21169;DHT22;10742;51.816;8.662;2022-09-03T08:12:28;24.90;49.70
21169;DHT22;10742;51.816;8.662;2022-09-03T08:15:55;25.00;49.50
21169;DHT22;10742;51.816;8.662;2022-09-03T08:19:17;25.20;49.20
21169;DHT22;10742;51.816;8.662;2022-09-03T08:22:38;25.20;49.20
21169;DHT22;10742;51.816;8.662;2022-09-03T08:26:00;25.40;49.30
21169;DHT22;10742;51.816;8.662;2022-09-03T08:29:21;25.50;49.00
21169;DHT22;10742;51.816;8.662;2022-09-03T08:32:43;25.60;48.90
21169;DHT22;10742;51.816;8.662;2022-09-03T08:36:10;25.80;48.90
21169;DHT22;10742;51.816;8.662;2022-09-03T08:39:34;25.90;48.30
21169;DHT22;10742;51.816;8.662;2022-09-03T08:43:17;26.00;48.30
21169;DHT22;10742;51.816;8.662;2022-09-03T08:50:24;26.20;47.90
21169;DHT22;10742;51.816;8.662;2022-09-03T08:53:51;26.40;47.70
21169;DHT22;10742;51.816;8.662;2022-09-03T08:57:18;26.40;47.20
21169;DHT22;10742;51.816;8.662;2022-09-03T09:07:54;26.60;46.70
21169;DHT22;10742;51.816;8.662;2022-09-03T09:11:29;26.70;46.80
21169;DHT22;10742;51.816;8.662;2022-09-03T09:22:29;27.10;46.30
21169;DHT22;10742;51.816;8.662;2022-09-03T09:25:53;27.20;45.80
21169;DHT22;10742;51.816;8.662;2022-09-03T09:29:15;27.30;46.10
21169;DHT22;10742;51.816;8.662;2022-09-03T09:32:36;27.30;46.10
21169;DHT22;10742;51.816;8.662;2022-09-03T09:36:04;27.40;46.10
21169;DHT22;10742;51.816;8.662;2022-09-03T09:39:26;27.50;45.70
21169;DHT22;10742;51.816;8.662;2022-09-03T09:42:47;27.60;45.90
21169;DHT22;10742;51.816;8.662;2022-09-03T09:46:14;27.70;45.80
21169;DHT22;10742;51.816;8.662;2022-09-03T09:53:09;28.00;45.30
21169;DHT22;10742;51.816;8.662;2022-09-03T09:56:38;28.10;45.30
21169;DHT22;10742;51.816;8.662;2022-09-03T10:00:07;28.30;45.00
21169;DHT22;10742;51.816;8.662;2022-09-03T10:03:33;28.30;44.60
21169;DHT22;10742;51.816;8.662;2022-09-03T10:10:45;28.40;44.50
21169;DHT22;10742;51.816;8.662;2022-09-03T10:14:24;28.50;44.30
21169;DHT22;10742;51.816;8.662;2022-09-03T10:18:07;28.50;44.10
21169;DHT22;10742;51.816;8.662;2022-09-03T10:21:35;28.60;44.20
21169;DHT22;10742;51.816;8.662;2022-09-03T10:24:59;28.70;44.00
21169;DHT22;10742;51.816;8.662;2022-09-03T10:28:29;28.70;43.90
21169;DHT22;10742;51.816;8.662;2022-09-03T10:32:06;28.70;43.70
21169;DHT22;10742;51.816;8.662;2022-09-03T10:35:47;28.70;43.60
21169;DHT22;10742;51.816;8.662;2022-09-03T10:50:22;28.70;43.20
21169;DHT22;10742;51.816;8.662;2022-09-03T10:58:04;28.70;43.00
21169;DHT22;10742;51.816;8.662;2022-09-03T11:08:41;28.70;43.20
21169;DHT22;10742;51.816;8.662;2022-09-03T11:15:59;28.80;43.50
21169;DHT22;10742;51.816;8.662;2022-09-03T11:19:32;28.90;43.20
21169;DHT22;10742;51.816;8.662;2022-09-03T11:22:58;29.00;43.00
21169;DHT22;10742;51.816;8.662;2022-09-03T11:26:21;29.10;43.30
21169;DHT22;10742;51.816;8.662;2022-09-03T11:30:05;29.10;43.60
21169;DHT22;10742;51.816;8.662;2022-09-03T11:33:31;29.30;43.00
21169;DHT22;10742;51.816;8.662;2022-09-03T11:40:38;29.50;42.40
21169;DHT22;10742;51.816;8.662;2022-09-03T11:44:18;29.50;42.60
21169;DHT22;10742;51.816;8.662;2022-09-03T11:47:42;29.60;42.20
21169;DHT22;10742;51.816;8.662;2022-09-03T11:51:03;29.60;42.40
21169;DHT22;10742;51.816;8.662;2022-09-03T11:54:44;29.60;42.30
21169;DHT22;10742;51.816;8.662;2022-09-03T11:58:27;29.70;42.30
21169;DHT22;10742;51.816;8.662;2022-09-03T12:02:00;29.70;42.10
21169;DHT22;10742;51.816;8.662;2022-09-03T12:05:42;29.80;42.40
21169;DHT22;10742;51.816;8.662;2022-09-03T12:20:14;30.10;41.20
21169;DHT22;10742;51.816;8.662;2022-09-03T12:23:43;30.20;40.90
21169;DHT22;10742;51.816;8.662;2022-09-03T12:27:04;30.20;41.20
21169;DHT22;10742;51.816;8.662;2022-09-03T12:30:26;30.30;41.40
21169;DHT22;10742;51.816;8.662;2022-09-03T12:33:55;30.30;41.00
21169;DHT22;10742;51.816;8.662;2022-09-03T12:37:22;30.40;40.70
21169;DHT22;10742;51.816;8.662;2022-09-03T12:41:04;30.40;40.60
21169;DHT22;10742;51.816;8.662;2022-09-03T12:44:41;30.40;40.60
21169;DHT22;10742;51.816;8.662;2022-09-03T12:48:12;30.40;40.60
21169;DHT22;10742;51.816;8.662;2022-09-03T12:51:40;30.40;39.80
21169;DHT22;10742;51.816;8.662;2022-09-03T12:58:58;30.40;40.00
21169;DHT22;10742;51.816;8.662;2022-09-03T13:02:31;30.40;39.90
21169;DHT22;10742;51.816;8.662;2022-09-03T13:06:02;30.40;40.10
21169;DHT22;10742;51.816;8.662;2022-09-03T13:09:27;30.40;39.80
21169;DHT22;10742;51.816;8.662;2022-09-03T13:12:50;30.40;40.00
21169;DHT22;10742;51.816;8.662;2022-09-03T13:23:47;30.40;39.80
21169;DHT22;10742;51.816;8.662;2022-09-03T13:34:38;30.30;39.20
21169;DHT22;10742;51.816;8.662;2022-09-03T13:41:52;30.20;39.60
21169;DHT22;10742;51.816;8.662;2022-09-03T13:49:31;30.10;39.40
21169;DHT22;10742;51.816;8.662;2022-09-03T13:57:04;30.00;39.40
21169;DHT22;10742;51.816;8.662;2022-09-03T14:00:42;29.90;39.50
21169;DHT22;10742;51.816;8.662;2022-09-03T14:04:13;29.80;39.50
21169;DHT22;10742;51.816;8.662;2022-09-03T14:08:11;29.80;39.40
21169;DHT22;10742;51.816;8.662;2022-09-03T14:16:01;29.70;39.40
21169;DHT22;10742;51.816;8.662;2022-09-03T14:19:57;29.70;40.70
21169;DHT22;10742;51.816;8.662;2022-09-03T14:26:53;29.70;40.20
21169;DHT22;10742;51.816;8.662;2022-09-03T14:41:31;29.70;40.50
21169;DHT22;10742;51.816;8.662;2022-09-03T14:56:04;29.80;40.30
21169;DHT22;10742;51.816;8.662;2022-09-03T14:59:43;29.70;40.20
21169;DHT22;10742;51.816;8.662;2022-09-03T15:07:23;29.70;40.10
21169;DHT22;10742;51.816;8.662;2022-09-03T15:10:51;29.70;40.10
21169;DHT22;10742;51.816;8.662;2022-09-03T15:14:45;29.60;40.00
21169;DHT22;10742;51.816;8.662;2022-09-03T15:22:26;29.50;40.10
21169;DHT22;10742;51.816;8.662;2022-09-03T15:26:18;29.50;41.20
21169;DHT22;10742;51.816;8.662;2022-09-03T15:29:48;29.40;40.50
21169;DHT22;10742;51.816;8.662;2022-09-03T15:33:27;29.40;40.50
21169;DHT22;10742;51.816;8.662;2022-09-03T15:36:51;29.30;40.20
21169;DHT22;10742;51.816;8.662;2022-09-03T15:40:26;29.30;40.40
21169;DHT22;10742;51.816;8.662;2022-09-03T15:43:49;29.30;40.40
21169;DHT22;10742;51.816;8.662;2022-09-03T15:47:27;29.20;40.40
21169;DHT22;10742;51.816;8.662;2022-09-03T16:06:24;29.00;40.20
21169;DHT22;10742;51.816;8.662;2022-09-03T16:13:46;28.90;40.40
21169;DHT22;10742;51.816;8.662;2022-09-03T16:17:27;28.90;40.50
21169;DHT22;10742;51.816;8.662;2022-09-03T16:21:02;28.80;40.40
21169;DHT22;10742;51.816;8.662;2022-09-03T16:24:56;28.80;40.30
21169;DHT22;10742;51.816;8.662;2022-09-03T16:28:31;28.80;40.40
21169;DHT22;10742;51.816;8.662;2022-09-03T16:47:12;28.60;40.40
21169;DHT22;10742;51.816;8.662;2022-09-03T17:41:45;28.00;41.30
21169;DHT22;10742;51.816;8.662;2022-09-03T17:45:12;28.00;41.50
21169;DHT22;10742;51.816;8.662;2022-09-03T17:52:10;27.90;41.90
21169;DHT22;10742;51.816;8.662;2022-09-03T17:55:52;27.80;42.20
21169;DHT22;10742;51.816;8.662;2022-09-03T18:02:44;27.70;42.30
21169;DHT22;10742;51.816;8.662;2022-09-03T18:17:32;27.50;43.00
21169;DHT22;10742;51.816;8.662;2022-09-03T18:21:00;27.50;43.00
21169;DHT22;10742;51.816;8.662;2022-09-03T18:24:52;27.40;43.10
21169;DHT22;10742;51.816;8.662;2022-09-03T18:28:46;27.30;43.30
21169;DHT22;10742;51.816;8.662;2022-09-03T18:32:29;27.30;43.50
21169;DHT22;10742;51.816;8.662;2022-09-03T18:36:09;27.30;43.50
21169;DHT22;10742;51.816;8.662;2022-09-03T18:39:49;27.20;43.60
21169;DHT22;10742;51.816;8.662;2022-09-03T19:11:34;26.80;45.10
21169;DHT22;10742;51.816;8.662;2022-09-03T19:15:26;26.80;45.20
21169;DHT22;10742;51.816;8.662;2022-09-03T19:19:23;26.70;45.10
21169;DHT22;10742;51.816;8.662;2022-09-03T19:23:05;26.60;45.10
21169;DHT22;10742;51.816;8.662;2022-09-03T19:35:17;26.40;45.30
21169;DHT22;10742;51.816;8.662;2022-09-03T19:47:25;26.20;45.70
21169;DHT22;10742;51.816;8.662;2022-09-03T19:51:20;26.10;45.80
21169;DHT22;10742;51.816;8.662;2022-09-03T19:55:01;26.10;45.90
21169;DHT22;10742;51.816;8.662;2022-09-03T19:58:49;25.90;45.80
21169;DHT22;10742;51.816;8.662;2022-09-03T20:02:31;25.80;46.10
21169;DHT22;10742;51.816;8.662;2022-09-03T20:06:11;25.80;46.10
21169;DHT22;10742;51.816;8.662;2022-09-03T20:09:53;25.70;46.40
21169;DHT22;10742;51.816;8.662;2022-09-03T20:13:38;25.60;46.50
21169;DHT22;10742;51.816;8.662;2022-09-03T20:28:30;25.40;46.80
21169;DHT22;10742;51.816;8.662;2022-09-03T20:39:11;25.20;47.50
21169;DHT22;10742;51.816;8.662;2022-09-03T20:57:13;24.80;48.20
21169;DHT22;10742;51.816;8.662;2022-09-03T21:00:47;24.70;48.40
21169;DHT22;10742;51.816;8.662;2022-09-03T21:15:29;24.40;48.90
21169;DHT22;10742;51.816;8.662;2022-09-03T21:19:00;24.30;49.30
21169;DHT22;10742;51.816;8.662;2022-09-03T21:26:30;24.10;49.70
21169;DHT22;10742;51.816;8.662;2022-09-03T21:30:06;24.00;49.80
21169;DHT22;10742;51.816;8.662;2022-09-03T21:33:32;23.90;50.00
21169;DHT22;10742;51.816;8.662;2022-09-03T21:36:55;23.90;50.00
21169;DHT22;10742;51.816;8.662;2022-09-03T21:40:18;23.90;50.00
21169;DHT22;10742;51.816;8.662;2022-09-03T21:43:51;23.80;50.20
21169;DHT22;10742;51.816;8.662;2022-09-03T21:47:18;23.80;50.50
21169;DHT22;10742;51.816;8.662;2022-09-03T21:50:54;23.70;50.60
21169;DHT22;10742;51.816;8.662;2022-09-03T21:54:36;23.60;50.90
21169;DHT22;10742;51.816;8.662;2022-09-03T22:05:35;23.40;51.30
21169;DHT22;10742;51.816;8.662;2022-09-03T22:09:10;23.30;51.10
21169;DHT22;10742;51.816;8.662;2022-09-03T22:19:35;23.10;51.70
21169;DHT22;10742;51.816;8.662;2022-09-03T22:23:06;23.10;51.40
21169;DHT22;10742;51.816;8.662;2022-09-03T22:30:18;23.00;52.30
21169;DHT22;10742;51.816;8.662;2022-09-03T22:33:48;22.90;51.90
21169;DHT22;10742;51.816;8.662;2022-09-03T22:41:47;22.70;52.90
21169;DHT22;10742;51.816;8.662;2022-09-03T22:56:32;22.40;53.30
21169;DHT22;10742;51.816;8.662;2022-09-03T23:00:07;22.40;53.20
21169;DHT22;10742;51.816;8.662;2022-09-03T23:03:36;22.30;53.50
21169;DHT22;10742;51.816;8.662;2022-09-03T23:07:06;22.30;53.60
21169;DHT22;10742;51.816;8.662;2022-09-03T23:11:11;22.20;53.50
21169;DHT22;10742;51.816;8.662;2022-09-03T23:14:41;22.20;53.90
21169;DHT22;10742;51.816;8.662;2022-09-03T23:18:12;22.10;53.70
21169;DHT22;10742;51.816;8.662;2022-09-03T23:21:38;22.10;54.00
21169;DHT22;10742;51.816;8.662;2022-09-03T23:25:14;22.00;54.00
21169;DHT22;10742;51.816;8.662;2022-09-03T23:28:46;22.00;54.40
21169;DHT22;10742;51.816;8.662;2022-09-03T23:32:08;22.00;54.50
21169;DHT22;10742;51.816;8.662;2022-09-03T23:35:37;21.90;53.60
21169;DHT22;10742;51.816;8.662;2022-09-03T23:43:32;21.80;54.90
21169;DHT22;10742;51.816;8.662;2022-09-03T23:58:15;21.60;55.40
